createdAt,value
2023-02-11T00:02:09.109Z,62.28
2023-02-11T00:07:12.855Z,62.61
2023-02-11T00:12:19.503Z,62.79
2023-02-11T00:17:22.287Z,62.96
2023-02-11T00:22:24.980Z,63.01
2023-02-11T00:27:29.065Z,63.17
2023-02-11T00:32:31.754Z,63.47
2023-02-11T00:37:36.368Z,63.60
2023-02-11T00:42:40.692Z,63.58
2023-02-11T00:47:43.328Z,63.70
2023-02-11T00:52:45.969Z,63.85
2023-02-11T00:57:50.160Z,63.98
2023-02-11T01:02:52.890Z,64.14
2023-02-11T01:07:55.600Z,64.71
2023-02-11T01:12:59.907Z,64.75
2023-02-11T01:18:02.573Z,64.85
2023-02-11T01:23:05.311Z,64.69
2023-02-11T01:28:16.073Z,64.76
2023-02-11T01:33:18.896Z,64.82
2023-02-11T01:38:23.135Z,65.10
2023-02-11T01:43:29.915Z,64.84
2023-02-11T01:48:36.854Z,65.24
2023-02-11T01:53:57.358Z,65.07
2023-02-11T01:59:05.942Z,65.19
2023-02-11T02:04:09.214Z,65.34
2023-02-11T02:09:17.644Z,65.57
2023-02-11T02:14:22.241Z,65.64
2023-02-11T02:19:51.120Z,65.49
2023-02-11T02:25:19.628Z,65.84
2023-02-11T02:30:52.948Z,65.97
2023-02-11T02:36:07.118Z,66.07
2023-02-11T02:41:11.714Z,65.78
2023-02-11T02:46:16.300Z,66.08
2023-02-11T02:51:31.882Z,66.01
2023-02-11T02:56:38.796Z,66.17
2023-02-11T03:01:51.126Z,66.13
2023-02-11T03:06:58.961Z,66.35
2023-02-11T03:12:03.205Z,66.39
2023-02-11T03:17:07.219Z,66.29
2023-02-11T03:22:14.516Z,66.32
2023-02-11T03:27:21.783Z,66.57
2023-02-11T03:32:27.929Z,66.51
2023-02-11T03:37:33.672Z,66.41
2023-02-11T03:42:38.444Z,66.61
2023-02-11T03:47:44.627Z,66.54
2023-02-11T03:52:50.401Z,66.75
2023-02-11T03:57:53.194Z,66.91
2023-02-11T04:02:55.892Z,66.56
2023-02-11T04:08:00.027Z,67.02
2023-02-11T04:13:02.652Z,66.98
2023-02-11T04:18:05.510Z,66.72
2023-02-11T04:23:10.107Z,66.78
2023-02-11T04:28:12.735Z,67.12
2023-02-11T04:33:15.360Z,67.03
2023-02-11T04:38:19.340Z,67.10
2023-02-11T04:43:21.970Z,67.00
2023-02-11T04:48:24.662Z,67.24
2023-02-11T04:53:28.699Z,67.02
2023-02-11T04:58:31.456Z,67.02
2023-02-11T05:03:34.070Z,67.16
2023-02-11T05:08:38.070Z,67.31
2023-02-11T05:13:40.747Z,67.15
2023-02-11T05:18:44.366Z,67.51
2023-02-11T05:23:48.679Z,67.57
2023-02-11T05:28:51.388Z,67.97
2023-02-11T05:33:54.089Z,68.08
2023-02-11T05:38:58.129Z,67.92
2023-02-11T05:44:00.850Z,68.19
2023-02-11T05:49:03.946Z,67.97
2023-02-11T05:54:08.044Z,68.23
2023-02-11T05:59:10.803Z,68.29
2023-02-11T06:04:13.659Z,68.36
2023-02-11T06:09:17.650Z,68.34
2023-02-11T06:14:20.894Z,68.25
2023-02-11T06:19:23.590Z,68.21
2023-02-11T06:24:48.073Z,68.27
2023-02-11T06:29:52.335Z,68.53
2023-02-11T06:34:55.048Z,68.19
2023-02-11T06:39:59.036Z,68.50
2023-02-11T06:45:01.690Z,68.32
2023-02-11T06:50:04.659Z,68.45
2023-02-11T06:55:09.228Z,68.68
2023-02-11T07:00:13.447Z,68.33
2023-02-11T07:05:16.127Z,68.36
2023-02-11T07:10:20.361Z,68.61
2023-02-11T07:15:22.957Z,68.69
2023-02-11T07:20:26.327Z,68.67
2023-02-11T07:25:30.340Z,68.32
2023-02-11T07:30:33.056Z,68.77
2023-02-11T07:35:35.722Z,68.74
2023-02-11T07:40:39.715Z,68.82
2023-02-11T07:45:42.368Z,68.88
2023-02-11T07:50:45.007Z,68.49
2023-02-11T07:55:49.386Z,68.82
2023-02-11T08:00:52.523Z,68.52
2023-02-11T08:05:55.179Z,68.75
2023-02-11T08:10:59.198Z,68.86
2023-02-11T08:16:01.958Z,68.87
2023-02-11T08:21:05.892Z,68.72
2023-02-11T08:26:11.851Z,68.87
2023-02-11T08:31:16.598Z,68.85
2023-02-11T08:36:21.487Z,68.81
2023-02-11T08:41:25.538Z,68.94
2023-02-11T08:46:28.236Z,68.57
2023-02-11T08:51:31.509Z,68.88
2023-02-11T08:56:35.703Z,68.62
2023-02-11T09:01:38.389Z,68.98
2023-02-11T09:06:41.596Z,68.83
2023-02-11T09:11:46.688Z,68.68
2023-02-11T09:16:49.852Z,68.95
2023-02-11T09:21:52.535Z,68.89
2023-02-11T09:26:56.598Z,69.00
2023-02-11T09:31:59.289Z,68.65
2023-02-11T09:37:02.600Z,68.92
2023-02-11T09:42:35.728Z,68.88
2023-02-11T09:47:47.134Z,68.61
2023-02-11T09:52:55.413Z,68.72
2023-02-11T09:58:43.773Z,69.19
2023-02-11T10:04:44.523Z,69.71
2023-02-11T10:10:08.559Z,70.09
2023-02-11T10:40:45.613Z,71.77
2023-02-11T10:45:50.355Z,71.76
2023-02-11T10:51:08.725Z,72.93
2023-02-11T10:56:29.597Z,73.47
2023-02-11T11:01:41.759Z,73.47
2023-02-11T11:13:25.521Z,73.15
2023-02-11T11:18:28.333Z,73.02
2023-02-11T11:29:04.041Z,72.49
2023-02-11T11:34:20.253Z,72.31
2023-02-11T11:39:25.289Z,72.35
2023-02-11T11:44:31.933Z,72.44
2023-02-11T11:49:37.667Z,72.22
2023-02-11T11:54:41.350Z,72.12
2023-02-11T11:59:45.699Z,72.38
2023-02-11T12:05:00.178Z,72.33
2023-02-11T12:10:22.289Z,72.31
2023-02-11T12:15:33.675Z,72.01
2023-02-11T12:20:41.412Z,72.31
2023-02-11T12:25:49.868Z,72.14
2023-02-11T12:31:06.303Z,72.34
2023-02-11T12:36:14.299Z,77.95
2023-02-11T12:41:42.307Z,82.18
2023-02-11T12:46:50.949Z,82.25
2023-02-11T12:52:04.287Z,81.03
2023-02-11T12:57:11.155Z,80.25
2023-02-11T13:02:22.142Z,79.07
2023-02-11T13:07:29.292Z,77.84
2023-02-11T13:12:50.973Z,77.33
2023-02-11T13:18:01.008Z,76.48
2023-02-11T13:23:10.125Z,76.21
2023-02-11T13:28:32.531Z,75.73
2023-02-11T13:33:39.496Z,75.55
2023-02-11T13:38:42.460Z,75.31
2023-02-11T13:43:45.481Z,75.17
2023-02-11T13:48:52.584Z,75.08
2023-02-11T13:53:57.531Z,74.92
2023-02-11T13:59:02.302Z,74.57
2023-02-11T14:04:40.304Z,74.44
2023-02-11T14:09:43.116Z,74.19
2023-02-11T14:15:18.476Z,74.22
2023-02-11T14:20:43.988Z,74.24
2023-02-11T14:25:54.915Z,73.98
2023-02-11T14:31:03.813Z,73.93
2023-02-11T14:36:16.820Z,73.71
2023-02-11T14:41:23.084Z,73.88
2023-02-11T14:46:32.728Z,73.50
2023-02-11T14:51:39.815Z,73.67
2023-02-11T14:56:44.420Z,73.69
2023-02-11T15:01:49.503Z,73.68
2023-02-11T15:06:54.518Z,73.46
2023-02-11T15:11:57.660Z,73.55
2023-02-11T15:17:09.552Z,73.50
2023-02-11T15:22:21.269Z,73.34
2023-02-11T15:27:28.821Z,73.14
2023-02-11T15:32:31.523Z,72.98
2023-02-11T15:37:38.137Z,73.16
2023-02-11T15:42:52.520Z,73.10
2023-02-11T15:47:58.878Z,72.83
2023-02-11T15:53:07.039Z,73.00
2023-02-11T15:58:10.149Z,73.07
2023-02-11T16:03:21.006Z,72.92
2023-02-11T16:08:26.913Z,72.79
2023-02-11T16:13:55.305Z,72.61
2023-02-11T16:19:04.860Z,72.56
2023-02-11T16:24:19.923Z,72.91
2023-02-11T16:29:26.265Z,72.91
2023-02-11T16:34:29.047Z,72.65
2023-02-11T16:39:33.367Z,72.59
2023-02-11T16:44:36.641Z,72.61
2023-02-11T16:49:42.550Z,72.49
2023-02-11T16:54:46.689Z,72.52
2023-02-11T16:59:49.750Z,72.63
2023-02-11T17:04:53.480Z,72.77
2023-02-11T17:09:57.722Z,72.50
2023-02-11T17:15:00.389Z,72.46
2023-02-11T17:20:03.137Z,72.51
2023-02-11T17:25:07.495Z,72.44
2023-02-11T17:30:11.596Z,72.42
2023-02-11T17:35:14.321Z,72.34
2023-02-11T17:40:18.668Z,72.37
2023-02-11T17:45:22.459Z,72.42
2023-02-11T17:50:27.594Z,72.19
2023-02-11T17:55:43.031Z,72.32
2023-02-11T18:00:46.306Z,72.19
2023-02-11T18:05:49.208Z,72.54
2023-02-11T18:10:53.455Z,72.36
2023-02-11T18:15:56.506Z,72.32
2023-02-11T18:20:59.936Z,72.02
2023-02-11T18:26:04.165Z,72.07
2023-02-11T18:31:08.503Z,72.11
2023-02-11T18:36:21.373Z,72.11
2023-02-11T18:41:25.451Z,72.00
2023-02-11T18:46:28.630Z,72.33
2023-02-11T18:51:32.444Z,72.18
2023-02-11T18:56:36.944Z,71.94
2023-02-11T19:01:43.172Z,72.19
2023-02-11T19:06:48.481Z,71.89
2023-02-11T19:11:54.038Z,72.22
2023-02-11T19:16:58.030Z,72.17
2023-02-11T19:22:02.255Z,71.94
2023-02-11T19:27:06.555Z,71.82
2023-02-11T19:32:09.391Z,71.83
2023-02-11T19:37:13.162Z,72.03
2023-02-11T19:42:17.216Z,71.89
2023-02-11T19:47:26.648Z,72.04
2023-02-11T19:52:29.305Z,72.08
2023-02-11T19:57:33.395Z,71.94
2023-02-11T20:02:38.480Z,72.11
2023-02-11T20:07:41.256Z,72.06
2023-02-11T20:12:45.261Z,71.85
2023-02-11T20:17:48.017Z,71.78
2023-02-11T20:22:52.322Z,71.99
2023-02-11T20:27:56.441Z,71.69
2023-02-11T20:32:59.434Z,71.85
2023-02-11T20:38:02.910Z,71.71
2023-02-11T20:43:06.946Z,71.73
2023-02-11T20:48:44.626Z,71.73
2023-02-11T20:53:49.889Z,71.83
2023-02-11T20:58:54.123Z,71.73
2023-02-11T21:03:58.117Z,71.52
2023-02-11T21:09:00.838Z,71.65
2023-02-11T21:14:04.933Z,71.88
2023-02-11T21:19:07.891Z,71.61
2023-02-11T21:24:19.616Z,71.65
2023-02-11T21:29:23.637Z,71.44
2023-02-11T21:34:26.320Z,71.64
2023-02-11T21:39:29.110Z,71.85
2023-02-11T21:44:33.093Z,71.86
2023-02-11T21:49:35.747Z,71.38
2023-02-11T21:54:38.438Z,71.43
2023-02-11T21:59:42.753Z,71.67
2023-02-11T22:04:45.436Z,71.68
2023-02-11T22:09:48.797Z,71.77
2023-02-11T22:14:52.731Z,71.48
2023-02-11T22:19:56.654Z,71.71
2023-02-11T22:24:59.992Z,71.29
2023-02-11T22:30:04.708Z,71.33
2023-02-11T22:35:07.716Z,71.48
2023-02-11T22:40:11.293Z,71.36
2023-02-11T22:45:21.549Z,71.50
2023-02-11T22:50:24.220Z,71.43
2023-02-11T22:55:27.484Z,71.56
2023-02-11T23:00:32.560Z,71.50
2023-02-11T23:05:38.918Z,71.55
2023-02-11T23:10:41.652Z,71.40
2023-02-11T23:15:46.725Z,71.30
2023-02-11T23:20:49.472Z,71.47
2023-02-11T23:25:52.142Z,71.46
2023-02-11T23:30:56.300Z,71.57
2023-02-11T23:35:58.971Z,71.27
2023-02-11T23:41:01.642Z,71.54
2023-02-11T23:46:06.482Z,71.38
2023-02-11T23:51:10.156Z,71.56
2023-02-11T23:56:15.794Z,71.32
